Hattiesburg, MS

7:37 PM CST on March 02, 2015 (GMT -0600)
University Heights | Change Station
CLOSE
Current Station
Personal Weather Station
Location: Hattiesburg, MS
Elevation: 246 ft
Nearby Weather Stations
Active Advisory: Dense Fog Advisory

Elev 246 ft 31.31 °N, 89.34 °W | Updated 7 minutes ago

Mist
Mist
61.5 °F
Feels Like 61.5 °F
N
0.6
Wind Variable Wind from NNW
Gusts 1.6 mph

Today
High -- | Low -- °F
--% Chance of Precip.
Yesterday
High -- | Low -- °F
Precip. -- in
6:22 AM 5:55 PM
Waxing Gibbous, 94% visible
Pressure 30.22 in
Visibility 0.8 miles
Clouds
Dew Point 61 °F
Humidity 98%
Rainfall 0.09 in
Snow Depth Not available.
UV Not available.
Pollen 7.70 out of 12
Air Quality Not available.
Flu Activity Not available.
SPECI KHBG 030105Z AUTO 10004KT 3/4SM BR VV002 17/16 A3022 RMK AO2 T01670161

More Conditions Fewer Conditions

Pressure 30.22 in
Visibility 0.8 miles
Clouds
Dew Point 61 °F
Humidity 98%
Rainfall 0.09 in
Snow Depth Not available.
UV Not available.
Pollen 7.70 out of 12
Air Quality Not available.
Flu Activity Not available.
SPECI KHBG 030105Z AUTO 10004KT 3/4SM BR VV002 17/16 A3022 RMK AO2 T01670161

More Conditions Fewer Conditions

10-Day Weather Forecast

Almanac

Astronomy

Mar. 02, 2015 Rise Set
Actual Time
Civil Twilight
Nautical Twilight
Astronomical Twilight
Moon
Length of Visible Light
Length of Day
Tomorrow will be .
, % of the Moon is Illuminated

Today's Extremes

State Highs State Lows

Community

WunderPhotos

Upload Photos

1,802,021 photos uploaded!

WunderBlogs® & News

Nearby

Air Quality

  Air Quality AQ Index Pollutant
Not available.

Snow Depth

Station Depth Elevation

Earthquake Activity

City Distance Mag. Time & Date
Minimum magnitude displayed is 2.5.

Coastal Water Temperatures

Place Temperature

Nearby Weather Stations

Dense Fog Advisory
Statement as of 2:39 PM CST on March 02, 2015

... Dense fog advisory in effect from 9 PM this evening to 9 am
CST Tuesday...

The National Weather Service in Jackson has issued a dense fog
advisory... which is in effect from 9 PM this evening to 9 am CST
Tuesday.

* Visibility... areas of visibility less than one-quarter of a mile

* impacts... reduced visibility will create hazardous travel. Local fluctuations
in visibility can be expected... .so motorists may encounter rapid
visibility reductions.

Precautionary/preparedness actions...

A dense fog advisory means visibilities will frequently be
reduced to less than one quarter mile. If driving... slow down...
use your headlights... and leave plenty of distance ahead of you.